sensor_id;sensor_type;location;lat;lon;timestamp;temperature;humidity
67157;SHT31;54086;50.126;8.710;2024-01-30T00:01:10;3.80;93.75
67157;SHT31;54086;50.126;8.710;2024-01-30T00:03:36;3.77;93.76
67157;SHT31;54086;50.126;8.710;2024-01-30T00:06:03;3.75;93.73
67157;SHT31;54086;50.126;8.710;2024-01-30T00:08:28;3.73;93.85
67157;SHT31;54086;50.126;8.710;2024-01-30T00:10:54;3.73;93.79
67157;SHT31;54086;50.126;8.710;2024-01-30T00:13:19;3.73;93.82
67157;SHT31;54086;50.126;8.710;2024-01-30T00:15:45;3.67;93.91
67157;SHT31;54086;50.126;8.710;2024-01-30T00:18:10;3.73;93.72
67157;SHT31;54086;50.126;8.710;2024-01-30T00:20:36;3.66;93.73
67157;SHT31;54086;50.126;8.710;2024-01-30T00:23:01;3.64;93.91
67157;SHT31;54086;50.126;8.710;2024-01-30T00:25:27;3.60;93.91
67157;SHT31;54086;50.126;8.710;2024-01-30T00:27:52;3.54;94.03
67157;SHT31;54086;50.126;8.710;2024-01-30T00:30:18;3.54;94.02
67157;SHT31;54086;50.126;8.710;2024-01-30T00:32:44;3.50;94.08
67157;SHT31;54086;50.126;8.710;2024-01-30T00:35:10;3.50;94.12
67157;SHT31;54086;50.126;8.710;2024-01-30T00:37:36;3.47;93.95
67157;SHT31;54086;50.126;8.710;2024-01-30T00:40:02;3.43;94.11
67157;SHT31;54086;50.126;8.710;2024-01-30T00:42:27;3.47;94.06
67157;SHT31;54086;50.126;8.710;2024-01-30T00:44:53;3.36;94.28
67157;SHT31;54086;50.126;8.710;2024-01-30T00:47:18;3.39;94.21
67157;SHT31;54086;50.126;8.710;2024-01-30T00:49:43;3.34;94.12
67157;SHT31;54086;50.126;8.710;2024-01-30T00:52:09;3.36;94.32
67157;SHT31;54086;50.126;8.710;2024-01-30T00:54:34;3.36;94.20
67157;SHT31;54086;50.126;8.710;2024-01-30T00:57:00;3.26;94.25
67157;SHT31;54086;50.126;8.710;2024-01-30T00:59:25;3.24;94.35
67157;SHT31;54086;50.126;8.710;2024-01-30T01:01:50;3.20;94.21
67157;SHT31;54086;50.126;8.710;2024-01-30T01:04:16;3.23;94.27
67157;SHT31;54086;50.126;8.710;2024-01-30T01:06:42;3.15;94.41
67157;SHT31;54086;50.126;8.710;2024-01-30T01:09:11;3.20;94.23
67157;SHT31;54086;50.126;8.710;2024-01-30T01:11:37;3.18;94.28
67157;SHT31;54086;50.126;8.710;2024-01-30T01:14:03;3.12;94.50
67157;SHT31;54086;50.126;8.710;2024-01-30T01:16:29;3.15;94.43
67157;SHT31;54086;50.126;8.710;2024-01-30T01:18:54;3.10;94.53
67157;SHT31;54086;50.126;8.710;2024-01-30T01:21:20;3.16;94.30
67157;SHT31;54086;50.126;8.710;2024-01-30T01:23:45;3.13;94.28
67157;SHT31;54086;50.126;8.710;2024-01-30T01:26:11;3.08;94.43
67157;SHT31;54086;50.126;8.710;2024-01-30T01:28:36;3.03;94.61
67157;SHT31;54086;50.126;8.710;2024-01-30T01:31:01;3.08;94.67
67157;SHT31;54086;50.126;8.710;2024-01-30T01:33:33;2.99;94.55
67157;SHT31;54086;50.126;8.710;2024-01-30T01:35:59;3.02;94.55
67157;SHT31;54086;50.126;8.710;2024-01-30T01:38:27;3.01;94.54
67157;SHT31;54086;50.126;8.710;2024-01-30T01:40:53;2.91;94.67
67157;SHT31;54086;50.126;8.710;2024-01-30T01:43:18;2.93;94.82
67157;SHT31;54086;50.126;8.710;2024-01-30T01:45:45;2.88;94.72
67157;SHT31;54086;50.126;8.710;2024-01-30T01:48:11;2.87;94.76
67157;SHT31;54086;50.126;8.710;2024-01-30T01:50:37;2.84;94.99
67157;SHT31;54086;50.126;8.710;2024-01-30T01:53:03;2.95;94.84
67157;SHT31;54086;50.126;8.710;2024-01-30T01:55:30;2.84;94.77
67157;SHT31;54086;50.126;8.710;2024-01-30T01:57:57;2.98;94.69
67157;SHT31;54086;50.126;8.710;2024-01-30T02:00:23;2.91;94.75
67157;SHT31;54086;50.126;8.710;2024-01-30T02:02:49;2.91;94.66
67157;SHT31;54086;50.126;8.710;2024-01-30T02:05:15;2.88;94.65
67157;SHT31;54086;50.126;8.710;2024-01-30T02:07:42;2.81;94.72
67157;SHT31;54086;50.126;8.710;2024-01-30T02:10:08;2.84;94.60
67157;SHT31;54086;50.126;8.710;2024-01-30T02:12:35;2.87;94.75
67157;SHT31;54086;50.126;8.710;2024-01-30T02:15:00;2.81;94.77
67157;SHT31;54086;50.126;8.710;2024-01-30T02:17:26;2.79;94.78
67157;SHT31;54086;50.126;8.710;2024-01-30T02:19:52;2.77;94.74
67157;SHT31;54086;50.126;8.710;2024-01-30T02:22:18;2.70;94.91
67157;SHT31;54086;50.126;8.710;2024-01-30T02:24:44;2.68;95.03
67157;SHT31;54086;50.126;8.710;2024-01-30T02:27:10;2.68;94.79
67157;SHT31;54086;50.126;8.710;2024-01-30T02:29:35;2.60;94.94
67157;SHT31;54086;50.126;8.710;2024-01-30T02:32:01;2.58;95.09
67157;SHT31;54086;50.126;8.710;2024-01-30T02:34:27;2.58;95.11
67157;SHT31;54086;50.126;8.710;2024-01-30T02:36:52;2.58;95.21
67157;SHT31;54086;50.126;8.710;2024-01-30T02:39:17;2.66;95.09
67157;SHT31;54086;50.126;8.710;2024-01-30T02:41:43;2.58;94.96
67157;SHT31;54086;50.126;8.710;2024-01-30T02:44:08;2.51;95.00
67157;SHT31;54086;50.126;8.710;2024-01-30T02:46:34;2.41;95.14
67157;SHT31;54086;50.126;8.710;2024-01-30T02:48:59;2.40;95.31
67157;SHT31;54086;50.126;8.710;2024-01-30T02:51:24;2.40;95.31
67157;SHT31;54086;50.126;8.710;2024-01-30T02:53:50;2.34;95.42
67157;SHT31;54086;50.126;8.710;2024-01-30T02:56:15;2.50;95.39
67157;SHT31;54086;50.126;8.710;2024-01-30T02:58:41;2.57;95.19
67157;SHT31;54086;50.126;8.710;2024-01-30T03:01:06;2.50;94.92
67157;SHT31;54086;50.126;8.710;2024-01-30T03:03:32;2.47;94.89
67157;SHT31;54086;50.126;8.710;2024-01-30T03:05:59;2.44;95.11
67157;SHT31;54086;50.126;8.710;2024-01-30T03:08:24;2.45;95.03
67157;SHT31;54086;50.126;8.710;2024-01-30T03:10:50;2.40;95.03
67157;SHT31;54086;50.126;8.710;2024-01-30T03:13:15;2.40;95.20
67157;SHT31;54086;50.126;8.710;2024-01-30T03:15:41;2.30;95.26
67157;SHT31;54086;50.126;8.710;2024-01-30T03:18:06;2.36;95.22
67157;SHT31;54086;50.126;8.710;2024-01-30T03:20:31;2.29;95.33
67157;SHT31;54086;50.126;8.710;2024-01-30T03:22:59;2.27;95.37
67157;SHT31;54086;50.126;8.710;2024-01-30T03:25:24;2.31;95.29
67157;SHT31;54086;50.126;8.710;2024-01-30T03:27:50;2.36;95.42
67157;SHT31;54086;50.126;8.710;2024-01-30T03:30:15;2.31;95.40
67157;SHT31;54086;50.126;8.710;2024-01-30T03:32:41;2.26;95.16
67157;SHT31;54086;50.126;8.710;2024-01-30T03:35:06;2.20;95.39
67157;SHT31;54086;50.126;8.710;2024-01-30T03:37:32;2.13;95.48
67157;SHT31;54086;50.126;8.710;2024-01-30T03:39:57;2.07;95.78
67157;SHT31;54086;50.126;8.710;2024-01-30T03:42:23;2.14;95.58
67157;SHT31;54086;50.126;8.710;2024-01-30T03:44:48;2.13;95.70
67157;SHT31;54086;50.126;8.710;2024-01-30T03:47:17;2.11;95.54
67157;SHT31;54086;50.126;8.710;2024-01-30T03:49:42;2.13;95.61
67157;SHT31;54086;50.126;8.710;2024-01-30T03:52:08;2.16;95.60
67157;SHT31;54086;50.126;8.710;2024-01-30T03:54:33;2.10;95.59
67157;SHT31;54086;50.126;8.710;2024-01-30T03:56:59;2.03;95.83
67157;SHT31;54086;50.126;8.710;2024-01-30T03:59:24;1.99;95.88
67157;SHT31;54086;50.126;8.710;2024-01-30T04:01:50;2.07;95.76
67157;SHT31;54086;50.126;8.710;2024-01-30T04:04:18;2.03;95.79
67157;SHT31;54086;50.126;8.710;2024-01-30T04:06:44;2.09;95.71
67157;SHT31;54086;50.126;8.710;2024-01-30T04:09:10;2.00;95.57
67157;SHT31;54086;50.126;8.710;2024-01-30T04:11:36;1.93;95.64
67157;SHT31;54086;50.126;8.710;2024-01-30T04:14:01;1.87;95.65
67157;SHT31;54086;50.126;8.710;2024-01-30T04:16:27;1.86;95.73
67157;SHT31;54086;50.126;8.710;2024-01-30T04:18:52;1.79;95.73
67157;SHT31;54086;50.126;8.710;2024-01-30T04:21:18;1.82;95.82
67157;SHT31;54086;50.126;8.710;2024-01-30T04:23:43;1.90;95.63
67157;SHT31;54086;50.126;8.710;2024-01-30T04:26:09;1.92;95.63
67157;SHT31;54086;50.126;8.710;2024-01-30T04:28:34;1.92;95.50
67157;SHT31;54086;50.126;8.710;2024-01-30T04:31:00;1.95;95.61
67157;SHT31;54086;50.126;8.710;2024-01-30T04:33:25;2.05;95.61
67157;SHT31;54086;50.126;8.710;2024-01-30T04:35:51;2.02;95.50
67157;SHT31;54086;50.126;8.710;2024-01-30T04:38:17;1.99;95.52
67157;SHT31;54086;50.126;8.710;2024-01-30T04:40:42;2.03;95.48
67157;SHT31;54086;50.126;8.710;2024-01-30T04:43:08;1.99;95.46
67157;SHT31;54086;50.126;8.710;2024-01-30T04:45:34;1.99;95.48
67157;SHT31;54086;50.126;8.710;2024-01-30T04:47:59;2.00;95.53
67157;SHT31;54086;50.126;8.710;2024-01-30T04:50:24;1.96;95.50
67157;SHT31;54086;50.126;8.710;2024-01-30T04:52:51;1.92;95.45
67157;SHT31;54086;50.126;8.710;2024-01-30T04:55:17;1.83;95.57
67157;SHT31;54086;50.126;8.710;2024-01-30T04:57:42;1.79;95.70
67157;SHT31;54086;50.126;8.710;2024-01-30T05:00:08;1.75;95.70
67157;SHT31;54086;50.126;8.710;2024-01-30T05:02:33;1.76;95.74
67157;SHT31;54086;50.126;8.710;2024-01-30T05:04:59;1.65;95.85
67157;SHT31;54086;50.126;8.710;2024-01-30T05:07:24;1.62;96.06
67157;SHT31;54086;50.126;8.710;2024-01-30T05:09:50;1.72;95.92
67157;SHT31;54086;50.126;8.710;2024-01-30T05:12:15;1.71;95.94
67157;SHT31;54086;50.126;8.710;2024-01-30T05:14:41;1.65;95.83
67157;SHT31;54086;50.126;8.710;2024-01-30T05:17:06;1.56;96.00
67157;SHT31;54086;50.126;8.710;2024-01-30T05:19:34;1.55;95.89
67157;SHT31;54086;50.126;8.710;2024-01-30T05:21:59;1.52;96.06
67157;SHT31;54086;50.126;8.710;2024-01-30T05:24:25;1.52;95.97
67157;SHT31;54086;50.126;8.710;2024-01-30T05:26:50;1.42;96.06
67157;SHT31;54086;50.126;8.710;2024-01-30T05:29:16;1.37;96.07
67157;SHT31;54086;50.126;8.710;2024-01-30T05:31:41;1.41;96.20
67157;SHT31;54086;50.126;8.710;2024-01-30T05:34:07;1.42;96.09
67157;SHT31;54086;50.126;8.710;2024-01-30T05:36:33;1.41;96.00
67157;SHT31;54086;50.126;8.710;2024-01-30T05:38:58;1.44;96.05
67157;SHT31;54086;50.126;8.710;2024-01-30T05:41:24;1.44;96.00
67157;SHT31;54086;50.126;8.710;2024-01-30T05:43:49;1.42;96.12
67157;SHT31;54086;50.126;8.710;2024-01-30T05:46:15;1.44;96.14
67157;SHT31;54086;50.126;8.710;2024-01-30T05:48:40;1.48;96.00
67157;SHT31;54086;50.126;8.710;2024-01-30T05:51:07;1.42;96.00
67157;SHT31;54086;50.126;8.710;2024-01-30T05:53:32;1.42;96.13
67157;SHT31;54086;50.126;8.710;2024-01-30T05:55:57;1.44;95.93
67157;SHT31;54086;50.126;8.710;2024-01-30T05:58:23;1.47;96.08
67157;SHT31;54086;50.126;8.710;2024-01-30T06:00:48;1.48;96.16
67157;SHT31;54086;50.126;8.710;2024-01-30T06:03:13;1.55;95.96
67157;SHT31;54086;50.126;8.710;2024-01-30T06:05:39;1.56;95.90
67157;SHT31;54086;50.126;8.710;2024-01-30T06:08:05;1.54;95.86
67157;SHT31;54086;50.126;8.710;2024-01-30T06:10:30;1.55;95.88
67157;SHT31;54086;50.126;8.710;2024-01-30T06:12:56;1.54;95.87
67157;SHT31;54086;50.126;8.710;2024-01-30T06:15:21;1.48;95.91
67157;SHT31;54086;50.126;8.710;2024-01-30T06:17:46;1.51;95.95
67157;SHT31;54086;50.126;8.710;2024-01-30T06:20:12;1.54;96.05
67157;SHT31;54086;50.126;8.710;2024-01-30T06:22:37;1.52;96.06
67157;SHT31;54086;50.126;8.710;2024-01-30T06:25:03;1.52;96.00
67157;SHT31;54086;50.126;8.710;2024-01-30T06:27:34;1.55;96.00
67157;SHT31;54086;50.126;8.710;2024-01-30T06:30:00;1.52;96.08
67157;SHT31;54086;50.126;8.710;2024-01-30T06:32:26;1.56;96.10
67157;SHT31;54086;50.126;8.710;2024-01-30T06:34:52;1.56;96.01
67157;SHT31;54086;50.126;8.710;2024-01-30T06:37:17;1.61;96.00
67157;SHT31;54086;50.126;8.710;2024-01-30T06:39:43;1.65;95.94
67157;SHT31;54086;50.126;8.710;2024-01-30T06:42:09;1.63;95.86
67157;SHT31;54086;50.126;8.710;2024-01-30T06:44:34;1.65;95.87
67157;SHT31;54086;50.126;8.710;2024-01-30T06:47:00;1.63;95.86
67157;SHT31;54086;50.126;8.710;2024-01-30T06:49:25;1.66;95.81
67157;SHT31;54086;50.126;8.710;2024-01-30T06:51:51;1.66;95.86
67157;SHT31;54086;50.126;8.710;2024-01-30T06:54:16;1.69;95.89
67157;SHT31;54086;50.126;8.710;2024-01-30T06:56:41;1.69;95.88
67157;SHT31;54086;50.126;8.710;2024-01-30T06:59:07;1.72;95.83
67157;SHT31;54086;50.126;8.710;2024-01-30T07:01:33;1.69;95.74
67157;SHT31;54086;50.126;8.710;2024-01-30T07:03:59;1.68;95.80
67157;SHT31;54086;50.126;8.710;2024-01-30T07:06:24;1.71;95.82
67157;SHT31;54086;50.126;8.710;2024-01-30T07:08:49;1.75;95.87
67157;SHT31;54086;50.126;8.710;2024-01-30T07:11:22;1.72;95.75
67157;SHT31;54086;50.126;8.710;2024-01-30T07:13:50;1.75;95.68
67157;SHT31;54086;50.126;8.710;2024-01-30T07:16:15;1.80;95.67
67157;SHT31;54086;50.126;8.710;2024-01-30T07:18:41;1.75;95.59
67157;SHT31;54086;50.126;8.710;2024-01-30T07:21:06;1.87;95.53
67157;SHT31;54086;50.126;8.710;2024-01-30T07:23:32;1.85;95.45
67157;SHT31;54086;50.126;8.710;2024-01-30T07:25:59;1.86;95.39
67157;SHT31;54086;50.126;8.710;2024-01-30T07:28:24;1.85;95.44
67157;SHT31;54086;50.126;8.710;2024-01-30T07:30:50;1.85;95.52
67157;SHT31;54086;50.126;8.710;2024-01-30T07:33:15;1.86;95.46
67157;SHT31;54086;50.126;8.710;2024-01-30T07:35:41;1.86;95.48
67157;SHT31;54086;50.126;8.710;2024-01-30T07:38:06;1.82;95.48
67157;SHT31;54086;50.126;8.710;2024-01-30T07:40:32;1.89;95.60
67157;SHT31;54086;50.126;8.710;2024-01-30T07:42:58;1.93;95.27
67157;SHT31;54086;50.126;8.710;2024-01-30T07:45:24;1.95;95.30
67157;SHT31;54086;50.126;8.710;2024-01-30T07:47:51;1.93;95.26
67157;SHT31;54086;50.126;8.710;2024-01-30T07:50:17;2.03;95.25
67157;SHT31;54086;50.126;8.710;2024-01-30T07:52:43;2.11;95.18
67157;SHT31;54086;50.126;8.710;2024-01-30T07:55:09;2.16;95.15
67157;SHT31;54086;50.126;8.710;2024-01-30T07:57:34;2.21;94.95
67157;SHT31;54086;50.126;8.710;2024-01-30T08:00:00;2.21;94.87
67157;SHT31;54086;50.126;8.710;2024-01-30T08:02:26;2.27;94.82
67157;SHT31;54086;50.126;8.710;2024-01-30T08:04:51;2.26;94.79
67157;SHT31;54086;50.126;8.710;2024-01-30T08:07:17;2.27;94.87
67157;SHT31;54086;50.126;8.710;2024-01-30T08:09:43;2.30;94.84
67157;SHT31;54086;50.126;8.710;2024-01-30T08:12:08;2.41;94.69
67157;SHT31;54086;50.126;8.710;2024-01-30T08:14:34;2.45;94.59
67157;SHT31;54086;50.126;8.710;2024-01-30T08:16:59;2.55;94.48
67157;SHT31;54086;50.126;8.710;2024-01-30T08:19:24;2.64;94.57
67157;SHT31;54086;50.126;8.710;2024-01-30T08:21:50;2.78;94.27
67157;SHT31;54086;50.126;8.710;2024-01-30T08:24:15;2.82;94.15
67157;SHT31;54086;50.126;8.710;2024-01-30T08:26:41;2.93;93.94
67157;SHT31;54086;50.126;8.710;2024-01-30T08:29:06;3.10;93.95
67157;SHT31;54086;50.126;8.710;2024-01-30T08:31:32;3.27;93.96
67157;SHT31;54086;50.126;8.710;2024-01-30T08:33:57;3.44;94.72
67157;SHT31;54086;50.126;8.710;2024-01-30T08:36:22;3.61;94.27
67157;SHT31;54086;50.126;8.710;2024-01-30T08:38:48;3.66;94.30
67157;SHT31;54086;50.126;8.710;2024-01-30T08:41:13;3.75;94.42
67157;SHT31;54086;50.126;8.710;2024-01-30T08:43:39;3.90;94.24
67157;SHT31;54086;50.126;8.710;2024-01-30T08:46:04;3.92;94.10
67157;SHT31;54086;50.126;8.710;2024-01-30T08:48:30;3.92;93.89
67157;SHT31;54086;50.126;8.710;2024-01-30T08:50:55;3.97;94.19
67157;SHT31;54086;50.126;8.710;2024-01-30T08:53:20;4.08;94.05
67157;SHT31;54086;50.126;8.710;2024-01-30T08:55:46;3.97;93.89
67157;SHT31;54086;50.126;8.710;2024-01-30T08:58:11;3.98;94.36
67157;SHT31;54086;50.126;8.710;2024-01-30T09:00:37;3.99;94.35
67157;SHT31;54086;50.126;8.710;2024-01-30T09:03:03;3.97;94.23
67157;SHT31;54086;50.126;8.710;2024-01-30T09:05:29;4.08;94.26
67157;SHT31;54086;50.126;8.710;2024-01-30T09:07:54;4.09;94.30
67157;SHT31;54086;50.126;8.710;2024-01-30T09:10:19;4.03;94.49
67157;SHT31;54086;50.126;8.710;2024-01-30T09:12:46;4.02;94.31
67157;SHT31;54086;50.126;8.710;2024-01-30T09:15:11;3.98;94.56
67157;SHT31;54086;50.126;8.710;2024-01-30T09:17:36;4.03;94.77
67157;SHT31;54086;50.126;8.710;2024-01-30T09:20:02;4.11;94.57
67157;SHT31;54086;50.126;8.710;2024-01-30T09:22:28;4.09;94.48
67157;SHT31;54086;50.126;8.710;2024-01-30T09:24:53;4.11;94.49
67157;SHT31;54086;50.126;8.710;2024-01-30T09:27:19;4.19;94.41
67157;SHT31;54086;50.126;8.710;2024-01-30T09:29:45;4.29;94.25
67157;SHT31;54086;50.126;8.710;2024-01-30T09:32:10;4.23;94.13
67157;SHT31;54086;50.126;8.710;2024-01-30T09:34:36;4.32;94.19
67157;SHT31;54086;50.126;8.710;2024-01-30T09:37:01;4.26;94.15
67157;SHT31;54086;50.126;8.710;2024-01-30T09:39:27;4.29;94.16
67157;SHT31;54086;50.126;8.710;2024-01-30T09:42:33;4.18;94.31
67157;SHT31;54086;50.126;8.710;2024-01-30T09:45:00;4.22;94.12
67157;SHT31;54086;50.126;8.710;2024-01-30T09:47:26;4.22;94.18
67157;SHT31;54086;50.126;8.710;2024-01-30T09:49:52;4.21;94.35
67157;SHT31;54086;50.126;8.710;2024-01-30T09:52:17;4.28;94.16
67157;SHT31;54086;50.126;8.710;2024-01-30T09:54:44;4.35;94.06
67157;SHT31;54086;50.126;8.710;2024-01-30T09:57:11;4.52;93.63
67157;SHT31;54086;50.126;8.710;2024-01-30T09:59:36;4.69;93.34
67157;SHT31;54086;50.126;8.710;2024-01-30T10:02:02;4.81;92.86
67157;SHT31;54086;50.126;8.710;2024-01-30T10:07:50;4.90;92.64
67157;SHT31;54086;50.126;8.710;2024-01-30T10:10:18;4.90;92.68
67157;SHT31;54086;50.126;8.710;2024-01-30T10:12:48;4.95;92.49
67157;SHT31;54086;50.126;8.710;2024-01-30T10:15:21;4.95;92.34
67157;SHT31;54086;50.126;8.710;2024-01-30T10:17:47;5.00;92.36
67157;SHT31;54086;50.126;8.710;2024-01-30T10:20:13;4.94;92.45
67157;SHT31;54086;50.126;8.710;2024-01-30T10:22:42;4.98;92.44
67157;SHT31;54086;50.126;8.710;2024-01-30T10:25:09;4.94;92.38
67157;SHT31;54086;50.126;8.710;2024-01-30T10:27:35;4.95;92.58
67157;SHT31;54086;50.126;8.710;2024-01-30T10:30:01;4.91;92.45
67157;SHT31;54086;50.126;8.710;2024-01-30T10:32:29;4.98;92.63
67157;SHT31;54086;50.126;8.710;2024-01-30T10:34:54;4.87;92.55
67157;SHT31;54086;50.126;8.710;2024-01-30T10:37:25;4.91;92.59
67157;SHT31;54086;50.126;8.710;2024-01-30T10:39:53;4.98;92.50
67157;SHT31;54086;50.126;8.710;2024-01-30T10:42:23;5.10;92.42
67157;SHT31;54086;50.126;8.710;2024-01-30T10:47:27;5.10;92.10
67157;SHT31;54086;50.126;8.710;2024-01-30T10:49:54;5.08;92.30
67157;SHT31;54086;50.126;8.710;2024-01-30T10:52:21;5.10;92.26
67157;SHT31;54086;50.126;8.710;2024-01-30T10:54:53;5.24;91.88
67157;SHT31;54086;50.126;8.710;2024-01-30T10:57:19;5.18;92.05
67157;SHT31;54086;50.126;8.710;2024-01-30T10:59:48;5.21;91.87
67157;SHT31;54086;50.126;8.710;2024-01-30T11:02:15;5.34;91.75
67157;SHT31;54086;50.126;8.710;2024-01-30T11:04:41;5.43;91.58
67157;SHT31;54086;50.126;8.710;2024-01-30T11:07:17;5.67;91.11
67157;SHT31;54086;50.126;8.710;2024-01-30T11:09:53;5.79;90.46
67157;SHT31;54086;50.126;8.710;2024-01-30T11:12:25;6.07;89.99
67157;SHT31;54086;50.126;8.710;2024-01-30T11:15:11;6.20;89.36
67157;SHT31;54086;50.126;8.710;2024-01-30T11:20:36;6.38;89.12
67157;SHT31;54086;50.126;8.710;2024-01-30T11:23:02;6.35;88.97
67157;SHT31;54086;50.126;8.710;2024-01-30T11:25:31;6.42;88.83
67157;SHT31;54086;50.126;8.710;2024-01-30T11:27:57;6.45;88.89
67157;SHT31;54086;50.126;8.710;2024-01-30T11:30:27;6.59;88.80
67157;SHT31;54086;50.126;8.710;2024-01-30T11:35:35;6.65;88.50
67157;SHT31;54086;50.126;8.710;2024-01-30T11:38:01;6.80;88.25
67157;SHT31;54086;50.126;8.710;2024-01-30T11:40:29;7.00;87.74
67157;SHT31;54086;50.126;8.710;2024-01-30T11:42:55;7.10;87.45
67157;SHT31;54086;50.126;8.710;2024-01-30T11:45:21;7.32;88.35
67157;SHT31;54086;50.126;8.710;2024-01-30T11:47:47;7.41;86.53
67157;SHT31;54086;50.126;8.710;2024-01-30T11:50:12;7.51;86.41
67157;SHT31;54086;50.126;8.710;2024-01-30T11:52:39;7.55;86.09
67157;SHT31;54086;50.126;8.710;2024-01-30T11:55:05;7.74;86.05
67157;SHT31;54086;50.126;8.710;2024-01-30T11:57:30;7.74;85.78
67157;SHT31;54086;50.126;8.710;2024-01-30T11:59:56;7.68;85.73
67157;SHT31;54086;50.126;8.710;2024-01-30T12:02:24;7.68;85.86
67157;SHT31;54086;50.126;8.710;2024-01-30T12:04:49;7.65;86.15
67157;SHT31;54086;50.126;8.710;2024-01-30T12:07:15;7.71;86.30
67157;SHT31;54086;50.126;8.710;2024-01-30T12:09:42;7.85;85.91
67157;SHT31;54086;50.126;8.710;2024-01-30T12:12:07;7.91;85.60
67157;SHT31;54086;50.126;8.710;2024-01-30T12:14:39;7.95;85.77
67157;SHT31;54086;50.126;8.710;2024-01-30T12:17:04;8.19;85.53
67157;SHT31;54086;50.126;8.710;2024-01-30T12:19:30;8.26;85.16
67157;SHT31;54086;50.126;8.710;2024-01-30T12:21:58;8.34;84.68
67157;SHT31;54086;50.126;8.710;2024-01-30T12:24:27;8.37;84.44
67157;SHT31;54086;50.126;8.710;2024-01-30T12:26:57;8.40;84.50
67157;SHT31;54086;50.126;8.710;2024-01-30T12:29:22;8.57;84.41
67157;SHT31;54086;50.126;8.710;2024-01-30T12:31:47;8.67;83.95
67157;SHT31;54086;50.126;8.710;2024-01-30T12:34:16;8.61;83.89
67157;SHT31;54086;50.126;8.710;2024-01-30T12:36:43;8.59;84.10
67157;SHT31;54086;50.126;8.710;2024-01-30T12:39:11;8.40;84.55
67157;SHT31;54086;50.126;8.710;2024-01-30T12:41:38;8.33;84.83
67157;SHT31;54086;50.126;8.710;2024-01-30T12:44:03;8.47;84.67
67157;SHT31;54086;50.126;8.710;2024-01-30T12:46:29;8.33;84.67
67157;SHT31;54086;50.126;8.710;2024-01-30T12:48:54;8.32;84.72
67157;SHT31;54086;50.126;8.710;2024-01-30T12:51:20;8.22;84.99
67157;SHT31;54086;50.126;8.710;2024-01-30T12:53:45;8.22;85.04
67157;SHT31;54086;50.126;8.710;2024-01-30T12:56:13;8.13;85.18
67157;SHT31;54086;50.126;8.710;2024-01-30T12:58:39;8.16;85.38
67157;SHT31;54086;50.126;8.710;2024-01-30T13:01:05;8.14;85.43
67157;SHT31;54086;50.126;8.710;2024-01-30T13:03:31;8.17;85.53
67157;SHT31;54086;50.126;8.710;2024-01-30T13:05:56;8.10;85.52
67157;SHT31;54086;50.126;8.710;2024-01-30T13:08:22;8.16;85.46
67157;SHT31;54086;50.126;8.710;2024-01-30T13:10:48;8.22;85.33
67157;SHT31;54086;50.126;8.710;2024-01-30T13:13:13;8.28;85.29
67157;SHT31;54086;50.126;8.710;2024-01-30T13:15:39;8.37;85.03
67157;SHT31;54086;50.126;8.710;2024-01-30T13:18:04;8.44;84.98
67157;SHT31;54086;50.126;8.710;2024-01-30T13:20:30;8.51;84.74
67157;SHT31;54086;50.126;8.710;2024-01-30T13:22:55;8.63;84.55
67157;SHT31;54086;50.126;8.710;2024-01-30T13:25:21;8.72;84.45
67157;SHT31;54086;50.126;8.710;2024-01-30T13:27:46;8.64;84.29
67157;SHT31;54086;50.126;8.710;2024-01-30T13:30:12;8.57;84.56
67157;SHT31;54086;50.126;8.710;2024-01-30T13:32:38;8.56;84.74
67157;SHT31;54086;50.126;8.710;2024-01-30T13:35:03;8.61;84.92
67157;SHT31;54086;50.126;8.710;2024-01-30T13:37:29;8.54;84.80
67157;SHT31;54086;50.126;8.710;2024-01-30T13:39:55;8.57;84.97
67157;SHT31;54086;50.126;8.710;2024-01-30T13:42:21;8.56;85.11
67157;SHT31;54086;50.126;8.710;2024-01-30T13:44:46;8.54;85.15
67157;SHT31;54086;50.126;8.710;2024-01-30T13:47:12;8.65;85.05
67157;SHT31;54086;50.126;8.710;2024-01-30T13:49:37;8.70;84.91
67157;SHT31;54086;50.126;8.710;2024-01-30T13:52:03;8.70;84.80
67157;SHT31;54086;50.126;8.710;2024-01-30T13:54:29;8.64;84.92
67157;SHT31;54086;50.126;8.710;2024-01-30T13:56:55;8.60;85.30
67157;SHT31;54086;50.126;8.710;2024-01-30T13:59:21;8.80;85.10
67157;SHT31;54086;50.126;8.710;2024-01-30T14:01:49;8.78;84.82
67157;SHT31;54086;50.126;8.710;2024-01-30T14:04:15;8.74;84.96
67157;SHT31;54086;50.126;8.710;2024-01-30T14:06:41;8.74;85.12
67157;SHT31;54086;50.126;8.710;2024-01-30T14:09:06;8.75;85.25
67157;SHT31;54086;50.126;8.710;2024-01-30T14:11:32;8.81;84.84
67157;SHT31;54086;50.126;8.710;2024-01-30T14:13:57;8.80;85.00
67157;SHT31;54086;50.126;8.710;2024-01-30T14:16:23;8.82;85.01
67157;SHT31;54086;50.126;8.710;2024-01-30T14:18:49;8.75;85.11
67157;SHT31;54086;50.126;8.710;2024-01-30T14:21:15;8.75;85.32
67157;SHT31;54086;50.126;8.710;2024-01-30T14:23:40;8.65;85.62
67157;SHT31;54086;50.126;8.710;2024-01-30T14:26:06;8.68;85.65
67157;SHT31;54086;50.126;8.710;2024-01-30T14:28:31;8.75;85.57
67157;SHT31;54086;50.126;8.710;2024-01-30T14:30:57;8.71;85.65
67157;SHT31;54086;50.126;8.710;2024-01-30T14:33:22;8.74;85.62
67157;SHT31;54086;50.126;8.710;2024-01-30T14:35:48;8.72;85.67
67157;SHT31;54086;50.126;8.710;2024-01-30T14:38:13;8.78;85.77
67157;SHT31;54086;50.126;8.710;2024-01-30T14:40:39;8.81;85.62
67157;SHT31;54086;50.126;8.710;2024-01-30T14:43:05;8.81;85.66
67157;SHT31;54086;50.126;8.710;2024-01-30T14:45:30;8.87;85.56
67157;SHT31;54086;50.126;8.710;2024-01-30T14:47:57;8.87;85.47
67157;SHT31;54086;50.126;8.710;2024-01-30T14:50:23;8.87;85.81
67157;SHT31;54086;50.126;8.710;2024-01-30T14:52:49;8.84;85.84
67157;SHT31;54086;50.126;8.710;2024-01-30T14:55:14;8.82;86.02
67157;SHT31;54086;50.126;8.710;2024-01-30T14:57:40;8.87;85.91
67157;SHT31;54086;50.126;8.710;2024-01-30T15:00:08;8.84;85.95
67157;SHT31;54086;50.126;8.710;2024-01-30T15:02:34;8.85;86.01
67157;SHT31;54086;50.126;8.710;2024-01-30T15:05:00;8.85;86.05
67157;SHT31;54086;50.126;8.710;2024-01-30T15:07:26;8.78;86.27
67157;SHT31;54086;50.126;8.710;2024-01-30T15:09:52;8.80;86.24
67157;SHT31;54086;50.126;8.710;2024-01-30T15:12:18;8.72;86.47
67157;SHT31;54086;50.126;8.710;2024-01-30T15:14:43;8.77;86.49
67157;SHT31;54086;50.126;8.710;2024-01-30T15:17:17;8.72;86.54
67157;SHT31;54086;50.126;8.710;2024-01-30T15:19:43;8.77;86.49
67157;SHT31;54086;50.126;8.710;2024-01-30T15:22:08;8.78;86.56
67157;SHT31;54086;50.126;8.710;2024-01-30T15:24:33;8.80;86.75
67157;SHT31;54086;50.126;8.710;2024-01-30T15:26:59;8.72;86.80
67157;SHT31;54086;50.126;8.710;2024-01-30T15:29:24;8.67;87.02
67157;SHT31;54086;50.126;8.710;2024-01-30T15:31:50;8.68;87.06
67157;SHT31;54086;50.126;8.710;2024-01-30T15:34:15;8.72;86.94
67157;SHT31;54086;50.126;8.710;2024-01-30T15:36:41;8.75;86.84
67157;SHT31;54086;50.126;8.710;2024-01-30T15:39:07;8.75;86.95
67157;SHT31;54086;50.126;8.710;2024-01-30T15:41:32;8.70;87.08
67157;SHT31;54086;50.126;8.710;2024-01-30T15:43:59;8.65;87.27
67157;SHT31;54086;50.126;8.710;2024-01-30T15:46:27;8.65;87.52
67157;SHT31;54086;50.126;8.710;2024-01-30T15:48:53;8.65;87.25